Airfield :
LOGIN :

Register | Disclaimer

   EN    FR    IT 

 










Legend :    VFR   Marginal VFR   IFR   Intensive IFR   Very Intensive IFR
Visi :
Ceiling :
>= 8 km
>= 3000ft
5 to 8 km
1000 to 3000 ft
1500m to 5 km
500 to 1000 ft
800 to 1500m
200 to 500 ft
< 800m
< 200 ft
Symbols :   Thunderstorms  Fog  Heavy snow  Heavy precipitations  Wind > 20 kt
SIGMETs :     Misc.  Thunderstorms  Icing  Turbulence  Mountain Waves  Volcanic Ashes







- Airport Elevation : 215 ft
- IATA code : ABZ
- Download approach charts


EGPD - Aberdeen / Dyce

CURRENT METAR :
  • 221950Z AUTO 12004KT 7000 OVC003 14/13 Q1004 NOSIG

EXPIRED METARs :
  • 221920Z AUTO 11005KT 7000 OVC003 14/13 Q1004 NOSIG
  • 221850Z AUTO 12005KT 7000 OVC004 14/13 Q1004 NOSIG
  • 221820Z AUTO 12006KT 7000 OVC004 14/13 Q1004 NOSIG
  • 221750Z AUTO 12005KT 090V150 8000 OVC005 14/13 Q1004 NOSIG
  • 221720Z AUTO 12005KT 100V160 9000 OVC005 14/13 Q1004 TEMPO BKN004

TAF TAF EGPD
Valid from the 22 at 18:00 until the 23 at 18:00 UTC


221703Z 2218/2318 12007KT 9999 BKN004
TEMPO 2218/2220 6000 SCT006
TEMPO 2220/2307 6000 SHRA
PROB40
TEMPO 2300/2306 2000 DZ BR BKN001
PROB30
TEMPO 2303/2309 0500 FG
BECMG 2309/2312 SCT008
PROB30
TEMPO 2314/2317 6000 BKN004
BECMG 2315/2318 18010KT
No reported NOTAMs for that airfield.



MET'MAP, your aeronautical weather chart ! - Copyright ORBIFLY December 2007 - Disclaimer

ORBIFLY MET'MAP TEAM :

Programming & Development : Alexandra Zaïnal
Concept & Development : Baudouin d'Aumeries
Co-Development & Prog : Marc-Olivier Méhu
Technical & hardware support : Manuel Goepfert

Contact : metmap@orbifly.com




SOURCES & CREDITS :

   NOAA